Sonic — XPE2388 — position and weather

sailwx.info

Track history (hours):
 
Tides and Currents Weather Stations Pressure Air Temp Water Temp Dewpoint Dewpoint Depression Visibility Wind Speed Wind Dir Waves Ship Positions

Sonic

Last reported at 2017-Oct-27 09:53 UTC. Time now 2017-Nov-18 15:59 UTC.
Position N 27°53' W 014°38'.
Warning: this ship's position is 22 days out of date.

Length 12 m.

Type: Sailing vessel. MMSI: 219014249.

Date/timePositionNaut miles runAvg speedWind from/ knotsBaromVisibWave heightAir tempDewpointWater temp
2017-Oct-27 09:53N 27°53' W 014°38'4 7.2
2017-Oct-27 09:21N 27°55' W 014°35'3 7.3
2017-Oct-27 08:55N 27°57' W 014°32'42 0.9
2017-Oct-25 12:33N 28°20' W 013°52'0 4.6
2017-Oct-25 12:30N 28°20' W 013°52'2 4.8
2017-Oct-25 11:59N 28°22' W 013°51'3 5.0
2017-Oct-25 11:28N 28°25' W 013°50'3 5.0
2017-Oct-25 10:55N 28°27' W 013°49'3 5.0
2017-Oct-25 10:17N 28°30' W 013°49'2 5.0
2017-Oct-25 09:55N 28°32' W 013°49'2 5.0
2017-Oct-25 09:29N 28°34' W 013°49'  
2017-Oct-21 12:17N 28°55' W 013°36'2 7.9
2017-Oct-21 12:00N 28°56' W 013°34'3 6.0
2017-Oct-21 11:30N 28°58' W 013°32'1 0.0
2017-Oct-20 12:49N 28°58' W 013°32'0 1.3
2017-Oct-20 12:29N 28°58' W 013°32'2 5.1
2017-Oct-20 12:00N 28°58' W 013°29'3 5.9
2017-Oct-20 11:30N 29°01' W 013°27'  
Track history (hours):
 
Tides and Currents Weather Stations Pressure Air Temp Water Temp Dewpoint Dewpoint Depression Visibility Wind Speed Wind Dir Waves Ship Positions

Sonic

Last reported at 2017-Oct-27 09:53 UTC. Time now 2017-Nov-18 15:59 UTC.
Position N 27°53' W 014°38'.
Warning: this ship's position is 22 days out of date.

Length 12 m.

Type: Sailing vessel. MMSI: 219014249.

Date/timePositionNaut miles runAvg speedWind from/ knotsBaromVisibWave heightAir tempDewpointWater temp
2017-Oct-27 09:53N 27°53' W 014°38'4 7.2
2017-Oct-27 09:21N 27°55' W 014°35'3 7.3
2017-Oct-27 08:55N 27°57' W 014°32'42 0.9
2017-Oct-25 12:33N 28°20' W 013°52'0 4.6
2017-Oct-25 12:30N 28°20' W 013°52'2 4.8
2017-Oct-25 11:59N 28°22' W 013°51'3 5.0
2017-Oct-25 11:28N 28°25' W 013°50'3 5.0
2017-Oct-25 10:55N 28°27' W 013°49'3 5.0
2017-Oct-25 10:17N 28°30' W 013°49'2 5.0
2017-Oct-25 09:55N 28°32' W 013°49'2 5.0
2017-Oct-25 09:29N 28°34' W 013°49'  
2017-Oct-21 12:17N 28°55' W 013°36'2 7.9
2017-Oct-21 12:00N 28°56' W 013°34'3 6.0
2017-Oct-21 11:30N 28°58' W 013°32'1 0.0
2017-Oct-20 12:49N 28°58' W 013°32'0 1.3
2017-Oct-20 12:29N 28°58' W 013°32'2 5.1
2017-Oct-20 12:00N 28°58' W 013°29'3 5.9
2017-Oct-20 11:30N 29°01' W 013°27'  

Dump ship's entire track history